Time;durP1;ratioP1;P1;durP2;ratioP2;P2;SDS_P1;SDS_P2;PMS_P1;PMS_P2;Temp;Humidity;BMP_temperature;BMP_pressure;BME280_temperature;BME280_humidity;BME280_pressure;Samples;Min_cycle;Max_cycle;Signal;HPM_P1;HPM_P2
2023/06/11 00:00:44;;;;;;;13.38;5.80;;;20.30;99.90;;;;;;5054688;28;20360;-62
2023/06/11 00:03:09;;;;;;;9.35;5.20;;;20.30;99.90;;;;;;5055983;28;20538;-63
2023/06/11 00:05:35;;;;;;;10.13;5.10;;;20.30;99.90;;;;;;5066599;28;20120;-62
2023/06/11 00:08:00;;;;;;;10.90;5.85;;;20.30;99.90;;;;;;5054011;28;20116;-62
2023/06/11 00:10:27;;;;;;;10.23;5.32;;;20.30;99.90;;;;;;5036198;28;20071;-62
2023/06/11 00:12:53;;;;;;;12.70;5.68;;;20.30;99.90;;;;;;5054100;28;20041;-63
2023/06/11 00:15:18;;;;;;;9.18;5.50;;;20.20;99.90;;;;;;5036407;28;20098;-62
2023/06/11 00:17:45;;;;;;;16.27;6.22;;;20.20;99.90;;;;;;5053762;28;20479;-63
2023/06/11 00:20:13;;;;;;;9.30;5.80;;;20.20;99.90;;;;;;5053132;28;20076;-63
2023/06/11 00:22:40;;;;;;;10.85;5.63;;;20.20;99.90;;;;;;5053893;28;20032;-63
2023/06/11 00:25:07;;;;;;;12.50;5.70;;;20.20;99.90;;;;;;5053560;28;20509;-62
2023/06/11 00:27:37;;;;;;;10.10;5.88;;;20.20;99.90;;;;;;5054068;28;20418;-63
2023/06/11 00:30:04;;;;;;;9.10;5.78;;;20.10;99.90;;;;;;5053439;28;20060;-63
2023/06/11 00:32:31;;;;;;;11.35;6.05;;;20.10;99.90;;;;;;5053577;28;20059;-62
2023/06/11 00:34:56;;;;;;;10.82;6.05;;;20.10;99.90;;;;;;5053533;28;20033;-62
2023/06/11 00:37:22;;;;;;;7.80;5.78;;;20.10;99.90;;;;;;5053523;28;20501;-62
2023/06/11 00:39:48;;;;;;;12.13;6.22;;;20.10;99.90;;;;;;5053280;28;20368;-62
2023/06/11 00:42:13;;;;;;;18.73;6.20;;;20.10;99.90;;;;;;5035571;28;20092;-63
2023/06/11 00:44:39;;;;;;;15.02;6.40;;;20.10;99.90;;;;;;5053457;28;20033;-62
2023/06/11 00:47:06;;;;;;;10.25;6.47;;;20.10;99.90;;;;;;5053502;28;20036;-62
2023/06/11 00:49:32;;;;;;;12.23;6.40;;;20.00;99.90;;;;;;5053286;28;20361;-63
2023/06/11 00:51:58;;;;;;;11.93;5.97;;;20.00;99.90;;;;;;5053460;28;20048;-63
2023/06/11 00:54:25;;;;;;;10.95;6.03;;;20.00;99.90;;;;;;5053462;28;20143;-63
2023/06/11 00:56:53;;;;;;;14.40;6.47;;;20.00;99.90;;;;;;5053754;28;20375;-63
2023/06/11 00:59:19;;;;;;;8.68;6.25;;;20.10;99.90;;;;;;5035644;28;20041;-63
2023/06/11 01:02:02;;;;;;;10.70;5.70;;;20.00;99.90;;;;;;5053321;28;20079;-63
2023/06/11 01:04:32;;;;;;;8.57;5.75;;;20.00;99.90;;;;;;5052983;28;20498;-63
2023/06/11 01:07:00;;;;;;;10.80;5.80;;;20.00;99.90;;;;;;5052735;28;20504;-63
2023/06/11 01:09:28;;;;;;;12.25;6.10;;;19.90;99.90;;;;;;5053325;28;20395;-63
2023/06/11 01:11:58;;;;;;;16.40;6.10;;;20.00;99.90;;;;;;5056967;28;20040;-63
2023/06/11 01:14:23;;;;;;;11.55;5.75;;;20.00;99.90;;;;;;5044198;28;20048;-64
2023/06/11 01:17:02;;;;;;;12.32;6.13;;;19.90;99.90;;;;;;5063734;28;20406;-62
2023/06/11 01:19:37;;;;;;;12.95;6.13;;;19.90;99.90;;;;;;5072356;28;20039;-63
2023/06/11 01:22:29;;;;;;;7.57;6.22;;;19.90;99.90;;;;;;5048593;28;20048;-63
2023/06/11 01:25:22;;;;;;;10.43;6.53;;;19.90;99.90;;;;;;4991145;28;20054;-63
2023/06/11 01:28:08;;;;;;;9.57;6.60;;;19.90;99.90;;;;;;4991070;28;20038;-63
2023/06/11 01:30:37;;;;;;;10.75;5.95;;;19.80;99.90;;;;;;4990645;28;20469;-63
2023/06/11 01:33:05;;;;;;;10.30;6.50;;;19.80;99.90;;;;;;4974847;28;20413;-63
2023/06/11 01:35:33;;;;;;;13.13;6.18;;;19.80;99.90;;;;;;4990851;28;20046;-63
2023/06/11 01:37:59;;;;;;;12.40;6.63;;;19.70;99.90;;;;;;4990881;28;20039;-63
2023/06/11 01:40:26;;;;;;;10.60;6.07;;;19.70;99.90;;;;;;4974492;28;20053;-62
2023/06/11 01:42:53;;;;;;;13.40;7.07;;;19.70;99.90;;;;;;4990858;28;20452;-63
2023/06/11 01:45:19;;;;;;;14.38;6.43;;;19.70;99.90;;;;;;4974586;28;20550;-62
2023/06/11 01:47:45;;;;;;;12.55;6.07;;;19.60;99.90;;;;;;4990863;28;20050;-63
2023/06/11 01:50:12;;;;;;;10.43;6.47;;;19.60;99.90;;;;;;4990580;28;20054;-63
2023/06/11 01:52:38;;;;;;;15.35;6.72;;;19.50;99.90;;;;;;4984705;28;20570;-63
2023/06/11 01:55:06;;;;;;;8.07;6.60;;;19.50;99.90;;;;;;4955061;28;20054;-62
2023/06/11 01:57:32;;;;;;;9.70;6.88;;;19.50;99.90;;;;;;4988680;28;20065;-62
2023/06/11 01:59:58;;;;;;;10.82;6.47;;;19.50;99.90;;;;;;4980763;28;20061;-62
2023/06/11 02:02:26;;;;;;;8.85;6.78;;;19.50;99.90;;;;;;5041191;28;20097;-62
2023/06/11 02:04:52;;;;;;;12.88;7.43;;;19.50;99.90;;;;;;5072011;28;20121;-62
2023/06/11 02:07:17;;;;;;;10.93;7.32;;;19.40;99.90;;;;;;5071600;28;20064;-62
2023/06/11 02:09:43;;;;;;;9.38;6.68;;;19.50;99.90;;;;;;5071871;28;20113;-62
2023/06/11 02:12:09;;;;;;;10.40;6.63;;;19.40;99.90;;;;;;5071940;28;20149;-62
2023/06/11 02:14:35;;;;;;;9.05;6.70;;;19.40;99.90;;;;;;5071819;28;20059;-62
2023/06/11 02:17:00;;;;;;;7.53;6.45;;;19.40;99.90;;;;;;5054367;28;20482;-62
2023/06/11 02:19:26;;;;;;;12.38;6.93;;;19.40;99.90;;;;;;5053764;28;20151;-62
2023/06/11 02:21:51;;;;;;;8.30;6.22;;;19.30;99.90;;;;;;5071487;28;20491;-62
2023/06/11 02:24:17;;;;;;;8.82;6.80;;;19.40;99.90;;;;;;5071787;28;20029;-62
2023/06/11 02:26:43;;;;;;;11.98;7.05;;;19.30;99.90;;;;;;5071931;28;20028;-62
2023/06/11 02:29:08;;;;;;;9.80;6.43;;;19.30;99.90;;;;;;5071351;28;20483;-62
2023/06/11 02:31:34;;;;;;;10.70;6.95;;;19.30;99.90;;;;;;5071318;28;20490;-62
2023/06/11 02:33:59;;;;;;;13.40;7.32;;;19.20;99.90;;;;;;5053435;28;20052;-63
2023/06/11 02:36:25;;;;;;;16.95;8.55;;;19.20;99.90;;;;;;5071593;28;20043;-62
2023/06/11 02:38:51;;;;;;;9.10;7.93;;;19.10;99.90;;;;;;5071603;28;20037;-62
2023/06/11 02:41:16;;;;;;;12.27;6.97;;;19.10;99.90;;;;;;5071092;28;20513;-63
2023/06/11 02:43:42;;;;;;;12.63;7.07;;;19.10;99.90;;;;;;5071108;28;20043;-63
2023/06/11 02:46:07;;;;;;;9.02;6.45;;;19.00;99.90;;;;;;5071365;28;20037;-63
2023/06/11 02:48:33;;;;;;;11.07;7.40;;;19.00;99.90;;;;;;5053307;28;20085;-62
2023/06/11 02:50:59;;;;;;;10.27;7.70;;;19.00;99.90;;;;;;5044285;28;20067;-62
2023/06/11 02:53:24;;;;;;;9.50;7.47;;;19.00;99.90;;;;;;5066420;28;20040;-63
2023/06/11 02:55:50;;;;;;;10.13;7.50;;;19.00;99.90;;;;;;5071445;28;20155;-62
2023/06/11 02:58:16;;;;;;;9.27;7.30;;;18.90;99.90;;;;;;5071397;28;20040;-63
2023/06/11 03:00:41;;;;;;;11.85;8.18;;;18.90;99.90;;;;;;5071116;28;20115;-63
2023/06/11 03:03:07;;;;;;;11.20;7.82;;;18.90;99.90;;;;;;5042401;28;20060;-62
2023/06/11 03:05:32;;;;;;;13.68;8.20;;;18.90;99.90;;;;;;5065180;28;20040;-62
2023/06/11 03:07:58;;;;;;;10.13;7.88;;;18.80;99.90;;;;;;5060382;28;20036;-62
2023/06/11 03:10:27;;;;;;;11.18;7.93;;;18.90;99.90;;;;;;5071167;28;20478;-62
2023/06/11 03:12:54;;;;;;;12.15;7.95;;;18.90;99.90;;;;;;5071572;28;20047;-63
2023/06/11 03:15:19;;;;;;;11.43;7.53;;;18.90;99.90;;;;;;5071108;28;20486;-62
2023/06/11 03:17:45;;;;;;;11.38;8.40;;;18.90;99.90;;;;;;5086689;28;20075;-63
2023/06/11 03:20:11;;;;;;;14.38;9.10;;;18.80;99.90;;;;;;5070967;28;20068;-63
2023/06/11 03:22:37;;;;;;;11.32;8.20;;;18.80;99.90;;;;;;5071223;28;20036;-62
2023/06/11 03:25:03;;;;;;;9.82;8.38;;;18.90;99.90;;;;;;5071182;28;20360;-62
2023/06/11 03:27:29;;;;;;;9.30;7.82;;;18.80;99.90;;;;;;5071004;28;20437;-62
2023/06/11 03:29:54;;;;;;;12.10;8.65;;;18.80;99.90;;;;;;5070924;28;20082;-62
2023/06/11 03:32:20;;;;;;;10.60;7.70;;;18.80;99.90;;;;;;5070924;28;20033;-63
2023/06/11 03:34:45;;;;;;;9.15;7.28;;;18.80;99.90;;;;;;5070922;28;20044;-62
2023/06/11 03:37:11;;;;;;;10.75;7.97;;;18.80;99.90;;;;;;5070797;28;20382;-62
2023/06/11 03:39:37;;;;;;;9.23;7.78;;;18.80;99.90;;;;;;5071342;28;20041;-63
2023/06/11 03:42:03;;;;;;;11.48;7.75;;;18.70;99.90;;;;;;5071120;28;20565;-62
2023/06/11 03:44:29;;;;;;;12.80;8.48;;;18.70;99.90;;;;;;5071071;28;20032;-62
2023/06/11 03:46:54;;;;;;;10.60;8.05;;;18.70;99.90;;;;;;5070656;28;20501;-62
2023/06/11 03:49:20;;;;;;;10.55;8.13;;;18.60;99.90;;;;;;5070985;28;20355;-62
2023/06/11 03:51:46;;;;;;;9.70;8.68;;;18.60;99.90;;;;;;5071125;28;20463;-63
2023/06/11 03:54:12;;;;;;;12.30;7.82;;;18.60;99.90;;;;;;5058151;28;20041;-62
2023/06/11 03:56:37;;;;;;;9.73;8.25;;;18.60;99.90;;;;;;5074486;28;20040;-63
2023/06/11 03:59:03;;;;;;;9.98;8.95;;;18.60;99.90;;;;;;5074359;28;20143;-62
2023/06/11 04:01:30;;;;;;;11.13;8.23;;;18.60;99.90;;;;;;5074160;28;20033;-63
2023/06/11 04:03:56;;;;;;;9.10;8.20;;;18.60;99.90;;;;;;5056200;28;20055;-63
2023/06/11 04:06:22;;;;;;;11.35;8.55;;;18.60;99.90;;;;;;5066682;28;20024;-62
2023/06/11 04:08:48;;;;;;;12.70;9.02;;;18.60;99.90;;;;;;5068379;28;20044;-63
2023/06/11 04:11:13;;;;;;;10.35;8.88;;;18.50;99.90;;;;;;5074453;28;20090;-63
2023/06/11 04:13:39;;;;;;;9.63;8.25;;;18.60;99.90;;;;;;5074229;28;20040;-62
2023/06/11 04:16:05;;;;;;;10.93;9.00;;;18.60;99.90;;;;;;5074278;28;20059;-62
2023/06/11 04:18:31;;;;;;;9.57;8.70;;;18.50;99.90;;;;;;5073942;28;20129;-63
2023/06/11 04:20:57;;;;;;;9.77;8.77;;;18.60;99.90;;;;;;5073836;28;20446;-63
2023/06/11 04:23:23;;;;;;;11.40;8.85;;;18.60;99.90;;;;;;5073945;28;20032;-62
2023/06/11 04:25:49;;;;;;;9.50;8.43;;;18.60;99.90;;;;;;5060396;28;20069;-63
2023/06/11 04:28:15;;;;;;;12.90;8.82;;;18.70;99.90;;;;;;5059781;28;20097;-63
2023/06/11 04:30:41;;;;;;;14.85;8.60;;;18.70;99.90;;;;;;5073786;28;20052;-63
2023/06/11 04:33:07;;;;;;;13.70;8.95;;;18.80;99.90;;;;;;5073361;28;20045;-63
2023/06/11 04:35:34;;;;;;;9.88;8.73;;;18.80;99.90;;;;;;5073776;28;20040;-63
2023/06/11 04:38:02;;;;;;;10.65;8.93;;;18.90;99.90;;;;;;5059834;28;20052;-63
2023/06/11 04:40:28;;;;;;;;;;;18.90;99.90;;;;;;5074255;28;20040;-63
2023/06/11 04:42:54;;;;;;;12.73;8.60;;;18.90;99.90;;;;;;5073442;28;19916;-63
2023/06/11 04:45:20;;;;;;;11.60;8.98;;;19.00;99.90;;;;;;5073444;28;20089;-63
2023/06/11 04:47:46;;;;;;;11.60;8.73;;;19.10;99.90;;;;;;5073731;28;20470;-63
2023/06/11 04:50:12;;;;;;;11.38;8.77;;;19.20;99.90;;;;;;5073973;28;20397;-62
2023/06/11 04:52:38;;;;;;;15.00;8.40;;;19.20;99.90;;;;;;5073446;28;20043;-63
2023/06/11 04:55:09;;;;;;;9.82;8.52;;;19.30;99.90;;;;;;5054047;28;20052;-62
2023/06/11 04:57:36;;;;;;;10.43;8.30;;;19.40;99.90;;;;;;5060872;28;20457;-63
2023/06/11 05:00:07;;;;;;;11.93;8.80;;;19.40;99.90;;;;;;5073233;28;20115;-63
2023/06/11 05:02:32;;;;;;;13.40;8.50;;;19.50;99.90;;;;;;5055712;28;20147;-63
2023/06/11 05:04:58;;;;;;;10.63;8.00;;;19.60;99.90;;;;;;5073028;28;20119;-63
2023/06/11 05:07:23;;;;;;;10.55;8.10;;;19.70;99.90;;;;;;5069155;28;20501;-63
2023/06/11 05:09:50;;;;;;;12.75;8.77;;;19.80;99.90;;;;;;5063221;28;20043;-62
2023/06/11 05:12:16;;;;;;;11.20;8.15;;;19.90;99.90;;;;;;5072877;28;20521;-62
2023/06/11 05:14:43;;;;;;;15.40;7.68;;;19.90;99.90;;;;;;5073170;28;20044;-62
2023/06/11 05:17:08;;;;;;;13.57;8.30;;;20.00;99.90;;;;;;5072903;28;20052;-62
2023/06/11 05:19:34;;;;;;;9.48;8.20;;;20.00;99.90;;;;;;5055014;28;20052;-62
2023/06/11 05:22:00;;;;;;;12.35;8.40;;;20.10;99.90;;;;;;5054793;28;20049;-62
2023/06/11 05:24:29;;;;;;;11.88;7.75;;;20.10;99.90;;;;;;5073121;28;20047;-63
2023/06/11 05:26:55;;;;;;;9.75;7.88;;;20.20;99.90;;;;;;5073253;28;20045;-62
2023/06/11 05:29:22;;;;;;;12.52;8.32;;;20.30;99.90;;;;;;5072752;28;20051;-62
2023/06/11 05:31:47;;;;;;;11.02;8.20;;;20.30;99.90;;;;;;5072643;28;20098;-62
2023/06/11 05:34:13;;;;;;;9.73;8.07;;;20.40;99.90;;;;;;5072650;28;20044;-62
2023/06/11 05:36:39;;;;;;;19.13;8.80;;;20.50;99.90;;;;;;5072477;28;20032;-63
2023/06/11 05:39:04;;;;;;;8.38;7.53;;;20.60;99.90;;;;;;5054740;28;20041;-63
2023/06/11 05:41:30;;;;;;;15.10;8.73;;;20.60;99.90;;;;;;5072886;28;20085;-62
2023/06/11 05:43:56;;;;;;;12.70;7.75;;;20.70;99.90;;;;;;5055230;28;20123;-63
2023/06/11 05:46:25;;;;;;;10.80;8.02;;;20.80;99.90;;;;;;5054881;28;20056;-63
2023/06/11 05:48:50;;;;;;;9.93;8.88;;;20.90;99.90;;;;;;5072606;28;20051;-62
2023/06/11 05:51:16;;;;;;;13.15;8.60;;;20.90;99.90;;;;;;5054430;28;20397;-63
2023/06/11 05:53:42;;;;;;;9.95;7.93;;;21.00;99.90;;;;;;5072454;28;20036;-63
2023/06/11 05:56:07;;;;;;;9.10;8.13;;;21.10;99.90;;;;;;5072454;28;20397;-63
2023/06/11 05:58:33;;;;;;;10.80;8.48;;;21.10;99.90;;;;;;5072048;28;20465;-63
2023/06/11 06:01:03;;;;;;;10.10;8.10;;;21.20;99.90;;;;;;5072678;28;20044;-63
2023/06/11 06:03:33;;;;;;;9.18;7.57;;;21.30;99.90;;;;;;5072142;28;20041;-61
2023/06/11 06:06:01;;;;;;;14.07;8.60;;;21.40;99.90;;;;;;5072682;28;20029;-62
2023/06/11 06:08:28;;;;;;;10.50;7.90;;;21.60;99.90;;;;;;5059767;28;20041;-63
2023/06/11 06:10:55;;;;;;;10.00;8.43;;;21.60;99.90;;;;;;5071340;28;20278;-63
2023/06/11 06:13:23;;;;;;;10.40;8.32;;;21.70;99.90;;;;;;5072355;28;20040;-63
2023/06/11 06:15:49;;;;;;;12.05;8.27;;;21.80;99.90;;;;;;5071810;28;20466;-63
2023/06/11 06:18:15;;;;;;;11.15;9.50;;;21.80;99.90;;;;;;5037503;28;20076;-63
2023/06/11 06:20:41;;;;;;;11.25;7.43;;;21.90;99.90;;;;;;5071757;28;20487;-62
2023/06/11 06:23:08;;;;;;;9.77;8.77;;;22.00;99.90;;;;;;5072130;28;20390;-64
2023/06/11 06:25:36;;;;;;;12.07;7.90;;;22.20;99.90;;;;;;5071986;28;20421;-63
2023/06/11 06:28:02;;;;;;;11.98;7.70;;;22.40;99.90;;;;;;5072046;28;20034;-63
2023/06/11 06:30:27;;;;;;;8.77;7.90;;;22.50;99.90;;;;;;5071965;28;20055;-62
2023/06/11 06:32:53;;;;;;;14.13;8.27;;;22.80;99.90;;;;;;5071716;28;20491;-62
2023/06/11 06:35:19;;;;;;;18.92;8.27;;;22.90;99.90;;;;;;5071930;28;20040;-63
2023/06/11 06:37:45;;;;;;;12.05;7.15;;;23.20;99.90;;;;;;5060161;28;20040;-63
2023/06/11 06:40:12;;;;;;;7.93;7.22;;;23.20;99.90;;;;;;5051945;28;20040;-63
2023/06/11 06:42:38;;;;;;;11.85;7.72;;;23.40;99.90;;;;;;5071954;28;20072;-63
2023/06/11 06:45:04;;;;;;;8.57;7.65;;;23.60;99.90;;;;;;5053898;28;20044;-63
2023/06/11 06:47:30;;;;;;;10.45;8.05;;;23.80;99.90;;;;;;5053792;28;20090;-63
2023/06/11 06:49:55;;;;;;;11.07;7.40;;;23.90;99.90;;;;;;5057946;28;20073;-63
2023/06/11 06:52:21;;;;;;;13.15;7.20;;;24.00;99.90;;;;;;5071839;28;20097;-63
2023/06/11 06:54:48;;;;;;;8.75;7.50;;;24.20;99.90;;;;;;5071553;28;20052;-63
2023/06/11 06:57:14;;;;;;;12.90;7.65;;;24.30;99.90;;;;;;5072143;28;20107;-64
2023/06/11 06:59:40;;;;;;;8.68;6.93;;;24.40;99.90;;;;;;5071582;28;20120;-63
2023/06/11 07:02:05;;;;;;;9.23;7.40;;;24.60;99.90;;;;;;5071861;28;20040;-63
2023/06/11 07:04:31;;;;;;;13.65;6.75;;;24.90;99.90;;;;;;5071935;28;20107;-63
2023/06/11 07:06:57;;;;;;;12.63;7.80;;;25.10;99.90;;;;;;5071672;28;20422;-63
2023/06/11 07:09:22;;;;;;;10.95;7.38;;;25.30;99.90;;;;;;5071663;28;20470;-63
2023/06/11 07:11:48;;;;;;;14.43;8.23;;;25.20;99.90;;;;;;5071994;28;20129;-63
2023/06/11 07:14:14;;;;;;;9.35;6.90;;;25.40;99.90;;;;;;5071987;28;20390;-63
2023/06/11 07:16:40;;;;;;;7.13;6.43;;;25.50;99.90;;;;;;5071973;28;20121;-63
2023/06/11 07:19:06;;;;;;;8.07;7.28;;;25.50;99.90;;;;;;5071785;28;20133;-64
2023/06/11 07:21:32;;;;;;;9.80;7.20;;;25.50;99.90;;;;;;5071639;28;20394;-64
2023/06/11 07:23:58;;;;;;;10.98;7.32;;;25.60;99.90;;;;;;5053905;28;20102;-64
2023/06/11 07:26:25;;;;;;;9.73;7.68;;;25.80;99.90;;;;;;5053268;28;20083;-63
2023/06/11 07:28:50;;;;;;;11.23;7.97;;;26.00;99.90;;;;;;5056873;28;20071;-63
2023/06/11 07:31:16;;;;;;;9.70;7.38;;;26.10;99.90;;;;;;5075612;28;20052;-64
2023/06/11 07:33:43;;;;;;;8.25;6.57;;;26.40;99.90;;;;;;5057448;28;20052;-64
2023/06/11 07:36:08;;;;;;;8.98;8.07;;;26.10;99.90;;;;;;5062089;28;20040;-64
2023/06/11 07:38:34;;;;;;;8.80;7.25;;;26.30;99.90;;;;;;5074315;28;20032;-64
2023/06/11 07:41:01;;;;;;;9.38;6.63;;;26.70;99.90;;;;;;5075180;28;20072;-65
2023/06/11 07:43:27;;;;;;;9.98;7.55;;;26.90;99.90;;;;;;5075438;28;20086;-64
2023/06/11 07:45:52;;;;;;;10.68;7.57;;;27.10;99.90;;;;;;5056830;28;20424;-64
2023/06/11 07:48:18;;;;;;;11.93;8.00;;;27.10;99.90;;;;;;5075098;28;20548;-64
2023/06/11 07:50:44;;;;;;;7.28;6.57;;;27.10;99.90;;;;;;5075371;28;20032;-65
2023/06/11 07:53:12;;;;;;;8.50;7.25;;;27.20;99.90;;;;;;5074789;28;20037;-64
2023/06/11 07:55:38;;;;;;;9.70;6.80;;;27.50;99.90;;;;;;5075119;28;20040;-65
2023/06/11 07:58:04;;;;;;;8.65;6.53;;;28.00;99.90;;;;;;5074493;28;20041;-64
2023/06/11 08:00:29;;;;;;;13.07;6.75;;;28.10;99.90;;;;;;5028849;28;20411;-64
2023/06/11 08:02:55;;;;;;;11.30;7.70;;;28.40;99.90;;;;;;5054726;28;20474;-64
2023/06/11 08:05:21;;;;;;;9.23;7.13;;;28.30;99.90;;;;;;5075494;28;20043;-65
2023/06/11 08:07:48;;;;;;;10.02;7.10;;;28.30;99.90;;;;;;5056933;28;20059;-66
2023/06/11 08:10:14;;;;;;;8.25;7.07;;;28.60;99.90;;;;;;5057491;28;20044;-64
2023/06/11 08:12:41;;;;;;;9.68;6.38;;;28.90;99.90;;;;;;5074598;28;20059;-65
2023/06/11 08:15:07;;;;;;;7.30;5.97;;;29.20;99.90;;;;;;5075012;28;20040;-64
2023/06/11 08:17:32;;;;;;;8.88;6.95;;;29.60;99.90;;;;;;5074439;28;20040;-65
2023/06/11 08:20:00;;;;;;;7.20;6.50;;;29.40;99.90;;;;;;5074176;28;20386;-65
2023/06/11 08:22:25;;;;;;;9.10;6.30;;;29.50;99.90;;;;;;5074210;28;20052;-64
2023/06/11 08:24:51;;;;;;;15.93;7.07;;;29.80;99.90;;;;;;5056430;28;20469;-65
2023/06/11 08:27:16;;;;;;;9.23;7.10;;;30.10;99.90;;;;;;5048857;28;20124;-65
2023/06/11 08:29:42;;;;;;;9.93;6.30;;;30.50;99.90;;;;;;5066776;28;20469;-65
2023/06/11 08:32:08;;;;;;;8.18;6.18;;;30.60;99.90;;;;;;5048251;28;20053;-65
2023/06/11 08:34:33;;;;;;;8.35;6.10;;;30.80;99.70;;;;;;5067903;28;20471;-65
2023/06/11 08:37:00;;;;;;;7.03;6.35;;;31.00;99.90;;;;;;5073458;28;20072;-65
2023/06/11 08:39:26;;;;;;;7.70;6.00;;;30.90;99.70;;;;;;5042443;28;20057;-65
2023/06/11 08:41:52;;;;;;;12.18;6.10;;;31.30;99.80;;;;;;5071822;28;20044;-65
2023/06/11 08:44:17;;;;;;;7.70;6.28;;;31.10;99.20;;;;;;5074002;28;20033;-65
2023/06/11 08:46:44;;;;;;;8.18;6.28;;;31.10;99.30;;;;;;5073547;28;20040;-65
2023/06/11 08:49:19;;;;;;;8.88;6.28;;;31.30;98.80;;;;;;5073407;28;20536;-66
2023/06/11 08:51:46;;;;;;;8.90;7.05;;;31.80;99.30;;;;;;5073614;28;20037;-65
2023/06/11 08:54:12;;;;;;;8.07;6.03;;;31.60;98.70;;;;;;5073329;28;20471;-65
2023/06/11 08:56:38;;;;;;;8.63;6.20;;;31.80;99.10;;;;;;5073332;28;20057;-66
2023/06/11 08:59:04;;;;;;;8.02;6.43;;;32.10;99.10;;;;;;5073198;28;20032;-66
2023/06/11 09:01:31;;;;;;;8.20;5.70;;;32.20;98.50;;;;;;5073175;28;20052;-65
2023/06/11 09:03:57;;;;;;;8.48;6.57;;;32.00;98.50;;;;;;5072841;28;20039;-66
2023/06/11 09:06:23;;;;;;;6.90;6.20;;;32.20;98.10;;;;;;5073213;28;20075;-66
2023/06/11 09:09:03;;;;;;;8.93;6.35;;;32.40;98.20;;;;;;5067251;28;20037;-66
2023/06/11 09:11:36;;;;;;;8.02;5.53;;;32.20;97.80;;;;;;5066664;28;20059;-67
2023/06/11 09:14:03;;;;;;;10.00;5.65;;;32.70;98.10;;;;;;5072711;28;20482;-67
2023/06/11 09:16:37;;;;;;;8.70;5.22;;;32.80;98.00;;;;;;5072610;28;20174;-66
2023/06/11 09:19:03;;;;;;;10.00;6.25;;;33.10;98.00;;;;;;5072727;28;20074;-67
2023/06/11 09:21:28;;;;;;;7.97;5.75;;;33.30;97.00;;;;;;5072547;28;20068;-67
2023/06/11 09:23:54;;;;;;;10.63;5.78;;;33.20;97.70;;;;;;5072704;28;20037;-66
2023/06/11 09:26:20;;;;;;;8.93;6.57;;;33.50;97.10;;;;;;5072826;28;20560;-66
2023/06/11 09:28:46;;;;;;;7.05;5.30;;;33.30;97.00;;;;;;5072277;28;20049;-66
2023/06/11 09:31:12;;;;;;;8.40;5.88;;;33.40;97.00;;;;;;5072661;28;20437;-67
2023/06/11 09:33:38;;;;;;;13.43;6.05;;;33.50;96.80;;;;;;5072488;28;20185;-68
2023/06/11 09:36:04;;;;;;;11.43;5.63;;;33.50;97.10;;;;;;5072574;28;20047;-68
2023/06/11 09:38:34;;;;;;;8.35;5.88;;;34.10;96.80;;;;;;5072202;28;20475;-66
2023/06/11 09:41:03;;;;;;;7.53;5.47;;;33.70;96.20;;;;;;5072362;28;20072;-68
2023/06/11 09:43:31;;;;;;;7.70;5.90;;;34.00;96.30;;;;;;5072235;28;20421;-68
2023/06/11 09:45:56;;;;;;;6.80;5.35;;;34.00;96.50;;;;;;5072329;28;20046;-67
2023/06/11 09:48:23;;;;;;;8.10;5.68;;;34.60;96.80;;;;;;5072179;28;20032;-68
2023/06/11 09:50:50;;;;;;;7.38;5.63;;;34.70;96.20;;;;;;5053908;28;20059;-68
2023/06/11 09:53:18;;;;;;;9.63;5.55;;;34.40;95.50;;;;;;5054092;28;20591;-67
2023/06/11 09:55:48;;;;;;;6.13;5.20;;;34.70;95.60;;;;;;5065987;28;20101;-67
2023/06/11 09:58:17;;;;;;;7.13;5.50;;;35.00;96.10;;;;;;5046888;28;20033;-67
2023/06/11 10:00:52;;;;;;;6.85;4.82;;;35.30;95.50;;;;;;5054361;28;20437;-67
2023/06/11 10:03:18;;;;;;;7.45;5.10;;;35.40;95.60;;;;;;5072001;28;20119;-67
2023/06/11 10:05:43;;;;;;;5.20;4.57;;;35.40;95.50;;;;;;5071766;28;20036;-67
2023/06/11 10:08:17;;;;;;;6.88;5.47;;;35.40;95.20;;;;;;5071779;28;20090;-67
2023/06/11 10:10:45;;;;;;;10.15;5.40;;;35.50;94.80;;;;;;5071451;28;20028;-67
2023/06/11 10:13:11;;;;;;;6.25;4.32;;;35.60;95.00;;;;;;5053537;28;20499;-67
2023/06/11 10:15:37;;;;;;;8.82;4.78;;;35.90;95.00;;;;;;5071636;28;20040;-69
2023/06/11 10:18:13;;;;;;;6.75;4.95;;;35.80;94.90;;;;;;5047949;28;20483;-68
2023/06/11 10:20:54;;;;;;;13.38;5.47;;;35.70;93.70;;;;;;5071505;28;20041;-66
2023/06/11 10:23:20;;;;;;;37.80;6.05;;;35.40;94.10;;;;;;5071851;28;20123;-67
2023/06/11 10:25:55;;;;;;;5.07;4.57;;;35.50;94.50;;;;;;5071407;28;20094;-68
2023/06/11 10:28:34;;;;;;;6.72;4.90;;;35.50;94.20;;;;;;5071725;28;20032;-68
2023/06/11 10:31:00;;;;;;;4.70;4.30;;;35.70;93.70;;;;;;5071320;28;20058;-68
2023/06/11 10:33:45;;;;;;;6.60;4.65;;;35.50;93.90;;;;;;5071262;28;20380;-67
2023/06/11 10:36:32;;;;;;;8.98;4.93;;;35.90;94.00;;;;;;5071527;28;20410;-68
2023/06/11 10:39:09;;;;;;;5.55;4.45;;;35.50;93.70;;;;;;5047799;28;20044;-67
2023/06/11 10:41:42;;;;;;;6.18;4.93;;;35.80;93.60;;;;;;5071511;28;20356;-68
2023/06/11 10:44:10;;;;;;;5.18;4.65;;;36.10;93.20;;;;;;5071365;28;20372;-68
2023/06/11 10:46:49;;;;;;;7.85;4.47;;;35.70;93.20;;;;;;5071506;28;20209;-67
2023/06/11 10:49:15;;;;;;;4.95;4.22;;;35.40;93.20;;;;;;5071639;28;20398;-68
2023/06/11 10:51:41;;;;;;;6.68;4.60;;;35.10;93.10;;;;;;5071170;28;20040;-68
2023/06/11 10:54:07;;;;;;;10.38;4.65;;;35.80;93.50;;;;;;5071727;28;20037;-69
2023/06/11 10:56:37;;;;;;;5.63;4.70;;;35.80;93.00;;;;;;5071031;28;20041;-68
2023/06/11 10:59:09;;;;;;;6.32;4.38;;;35.80;93.00;;;;;;5071328;28;20386;-68
2023/06/11 11:01:35;;;;;;;8.77;4.45;;;35.90;92.20;;;;;;5051193;28;20089;-68
2023/06/11 11:04:02;;;;;;;4.97;4.00;;;35.90;92.60;;;;;;5074044;28;20567;-67
2023/06/11 11:06:29;;;;;;;6.22;4.25;;;36.30;92.60;;;;;;5075339;28;20036;-67
2023/06/11 11:08:56;;;;;;;7.17;4.27;;;36.40;92.10;;;;;;5074983;28;20458;-68
2023/06/11 11:11:26;;;;;;;8.85;4.57;;;36.60;92.00;;;;;;5075220;28;20275;-67
2023/06/11 11:13:53;;;;;;;4.10;3.70;;;36.50;90.90;;;;;;5075085;28;20515;-67
2023/06/11 11:16:20;;;;;;;5.95;4.75;;;36.50;91.30;;;;;;5075203;28;20036;-66
2023/06/11 11:18:47;;;;;;;4.97;4.20;;;36.50;90.60;;;;;;5057095;28;20044;-67
2023/06/11 11:21:13;;;;;;;11.00;4.72;;;36.30;91.20;;;;;;5075069;28;20118;-67
2023/06/11 11:23:39;;;;;;;4.75;4.35;;;36.20;91.30;;;;;;5074938;28;20048;-67
2023/06/11 11:26:05;;;;;;;5.93;4.03;;;36.10;91.00;;;;;;5074917;28;20040;-67
2023/06/11 11:28:32;;;;;;;5.68;3.70;;;36.40;91.40;;;;;;5057076;28;20102;-67
2023/06/11 11:30:59;;;;;;;7.78;4.32;;;36.00;90.60;;;;;;5074535;28;20057;-67
2023/06/11 11:33:25;;;;;;;4.43;4.00;;;36.40;90.60;;;;;;5060762;28;20040;-69
2023/06/11 11:35:55;;;;;;;5.53;3.92;;;36.70;90.10;;;;;;5074927;28;20068;-67
2023/06/11 11:38:22;;;;;;;5.88;3.58;;;36.10;90.40;;;;;;5074750;28;20149;-67
2023/06/11 11:40:57;;;;;;;5.40;4.18;;;36.70;91.20;;;;;;5074905;28;20040;-67
2023/06/11 11:43:23;;;;;;;7.35;4.63;;;36.70;89.10;;;;;;5074464;28;20032;-67
2023/06/11 11:45:49;;;;;;;4.78;4.22;;;36.60;90.50;;;;;;5056986;28;20419;-67
2023/06/11 11:48:15;;;;;;;9.90;4.38;;;36.30;90.00;;;;;;5074380;28;20033;-67
2023/06/11 11:50:41;;;;;;;4.63;3.63;;;36.30;90.00;;;;;;5074447;28;20098;-67
2023/06/11 11:53:09;;;;;;;7.47;3.90;;;36.50;90.40;;;;;;5056599;28;20482;-68
2023/06/11 11:55:35;;;;;;;7.00;4.13;;;36.30;88.20;;;;;;5074472;28;20068;-67
2023/06/11 11:58:21;;;;;;;6.10;3.93;;;36.10;89.60;;;;;;5074617;28;20497;-67
2023/06/11 12:00:56;;;;;;;7.45;4.18;;;36.50;89.20;;;;;;5073928;28;20576;-67
2023/06/11 12:03:23;;;;;;;7.22;4.38;;;36.30;88.50;;;;;;5074208;28;20037;-67
2023/06/11 12:06:02;;;;;;;4.97;3.92;;;36.20;89.10;;;;;;5075648;28;20394;-67
2023/06/11 12:08:29;;;;;;;4.82;4.13;;;36.20;87.90;;;;;;5074226;28;20120;-68
2023/06/11 12:10:56;;;;;;;5.40;3.83;;;36.20;87.70;;;;;;5055899;28;20529;-67
2023/06/11 12:13:21;;;;;;;5.05;4.35;;;36.10;88.20;;;;;;5073982;28;20072;-66
2023/06/11 12:15:47;;;;;;;6.53;4.05;;;35.80;87.70;;;;;;5072618;28;20060;-67
2023/06/11 12:18:13;;;;;;;4.15;3.75;;;35.70;87.90;;;;;;5074217;28;20037;-67
2023/06/11 12:20:39;;;;;;;9.63;4.45;;;35.50;88.40;;;;;;5072410;28;20101;-66
2023/06/11 12:23:05;;;;;;;5.95;3.85;;;35.60;87.60;;;;;;5061116;28;20040;-66
2023/06/11 12:25:32;;;;;;;5.60;3.97;;;35.60;88.70;;;;;;5073827;28;20039;-66
2023/06/11 12:27:58;;;;;;;8.35;4.53;;;35.30;88.80;;;;;;5073625;28;20085;-66
2023/06/11 12:30:24;;;;;;;5.10;4.00;;;35.00;88.70;;;;;;5073543;28;20056;-66
2023/06/11 12:32:51;;;;;;;5.40;4.53;;;35.20;86.70;;;;;;5073873;28;20271;-65
2023/06/11 12:35:17;;;;;;;6.10;4.40;;;35.20;87.20;;;;;;5073519;28;20493;-65
2023/06/11 12:37:45;;;;;;;4.60;3.78;;;35.30;87.40;;;;;;5073539;28;20306;-65
2023/06/11 12:40:11;;;;;;;9.23;4.18;;;35.30;87.40;;;;;;5073479;28;20047;-65
2023/06/11 12:42:37;;;;;;;4.65;3.72;;;35.40;87.90;;;;;;5073308;28;20041;-67